Time;durP1;ratioP1;P1;durP2;ratioP2;P2;SDS_P1;SDS_P2;PMS_P1;PMS_P2;Temp;Humidity;BMP_temperature;BMP_pressure;BME280_temperature;BME280_humidity;BME280_pressure;Samples;Min_cycle;Max_cycle;Signal;HPM_P1;HPM_P2
2022/08/28 00:00:40;;;;;;;9.55;3.33;;;12.60;99.90;;;;;;5075477;28;20411;-70
2022/08/28 00:03:06;;;;;;;6.80;3.30;;;12.60;99.90;;;;;;5074791;28;20044;-70
2022/08/28 00:05:32;;;;;;;7.30;3.13;;;12.60;99.90;;;;;;5074797;28;20049;-70
2022/08/28 00:07:59;;;;;;;5.40;2.80;;;12.60;99.90;;;;;;5074898;28;20348;-70
2022/08/28 00:10:25;;;;;;;10.30;3.40;;;12.60;99.90;;;;;;5199051;22;20079;-70
2022/08/28 00:12:54;;;;;;;8.48;3.20;;;12.60;99.90;;;;;;5054685;28;20060;-71
2022/08/28 00:15:26;;;;;;;10.98;3.30;;;12.60;99.90;;;;;;5054404;28;20453;-70
2022/08/28 00:17:52;;;;;;;7.40;2.80;;;12.60;99.90;;;;;;5054522;28;20091;-70
2022/08/28 00:20:19;;;;;;;8.15;2.60;;;12.50;99.90;;;;;;5054735;28;20363;-70
2022/08/28 00:22:46;;;;;;;5.22;2.72;;;12.60;99.90;;;;;;5036886;28;20044;-70
2022/08/28 00:25:13;;;;;;;9.55;2.78;;;12.50;99.90;;;;;;5053430;28;20037;-71
2022/08/28 00:27:51;;;;;;;7.50;3.20;;;12.50;99.90;;;;;;5053996;28;20052;-70
2022/08/28 00:30:27;;;;;;;7.30;2.92;;;12.50;99.90;;;;;;5054984;28;20037;-70
2022/08/28 00:32:54;;;;;;;12.30;3.58;;;12.50;99.90;;;;;;5054795;28;20483;-70
2022/08/28 00:35:20;;;;;;;6.93;3.03;;;12.50;99.90;;;;;;5054578;28;20171;-71
2022/08/28 00:37:46;;;;;;;6.47;3.20;;;12.50;99.90;;;;;;5054423;28;20048;-70
2022/08/28 00:40:14;;;;;;;6.68;2.95;;;12.50;99.90;;;;;;5054352;28;20037;-70
2022/08/28 00:42:41;;;;;;;7.22;3.38;;;12.50;99.90;;;;;;5054212;28;20045;-70
2022/08/28 00:45:07;;;;;;;8.02;3.13;;;12.50;99.90;;;;;;5040352;28;20449;-70
2022/08/28 00:47:33;;;;;;;7.85;3.20;;;12.50;99.90;;;;;;5058612;28;20047;-71
2022/08/28 00:49:59;;;;;;;8.43;3.35;;;12.50;99.90;;;;;;5058372;28;20052;-70
2022/08/28 00:52:26;;;;;;;6.75;2.80;;;12.50;99.90;;;;;;5058087;28;20457;-70
2022/08/28 00:54:59;;;;;;;6.32;2.90;;;12.40;99.90;;;;;;5058128;28;20106;-70
2022/08/28 00:57:44;;;;;;;6.32;2.75;;;12.40;99.90;;;;;;5058259;28;20049;-70
2022/08/28 01:00:13;;;;;;;7.55;2.97;;;12.40;99.90;;;;;;5058067;28;20045;-70
2022/08/28 01:02:39;;;;;;;7.78;3.00;;;12.40;99.90;;;;;;5058065;28;20044;-71
2022/08/28 01:05:09;;;;;;;5.45;2.58;;;12.40;99.90;;;;;;5057689;28;20094;-70
2022/08/28 01:07:37;;;;;;;8.63;3.28;;;12.30;99.90;;;;;;5040031;28;20052;-70
2022/08/28 01:10:06;;;;;;;7.20;2.90;;;12.40;99.90;;;;;;5057358;28;20063;-70
2022/08/28 01:12:33;;;;;;;6.10;2.80;;;12.30;99.90;;;;;;5057725;28;20103;-70
2022/08/28 01:15:02;;;;;;;11.70;3.13;;;12.30;99.90;;;;;;5058081;28;20049;-70
2022/08/28 01:17:31;;;;;;;7.20;2.88;;;12.30;99.90;;;;;;5057611;28;20044;-70
2022/08/28 01:20:03;;;;;;;8.13;2.85;;;12.20;99.90;;;;;;5057457;28;20429;-70
2022/08/28 01:22:36;;;;;;;8.75;3.53;;;12.10;99.90;;;;;;5057644;28;20048;-70
2022/08/28 01:25:06;;;;;;;7.25;3.15;;;12.10;99.90;;;;;;5056412;28;20338;-70
2022/08/28 01:27:32;;;;;;;5.93;2.80;;;12.10;99.90;;;;;;5057748;28;20040;-71
2022/08/28 01:29:58;;;;;;;11.65;3.13;;;12.10;99.90;;;;;;5057503;28;20102;-71
2022/08/28 01:32:42;;;;;;;7.63;2.88;;;12.10;99.90;;;;;;5057431;28;20049;-70
2022/08/28 01:35:12;;;;;;;10.18;2.60;;;12.10;99.90;;;;;;5057865;28;20364;-71
2022/08/28 01:37:38;;;;;;;8.45;3.10;;;12.10;99.90;;;;;;5057371;28;20128;-70
2022/08/28 01:40:08;;;;;;;7.65;3.03;;;12.00;99.90;;;;;;5056962;28;20128;-70
2022/08/28 01:42:41;;;;;;;11.30;3.70;;;12.00;99.90;;;;;;5057239;28;20377;-70
2022/08/28 01:45:09;;;;;;;6.97;3.10;;;12.00;99.90;;;;;;5040081;28;20041;-71
2022/08/28 01:47:39;;;;;;;7.28;2.80;;;12.00;99.90;;;;;;5039714;28;20096;-70
2022/08/28 01:50:07;;;;;;;6.95;2.60;;;12.00;99.90;;;;;;5057214;28;20037;-71
2022/08/28 01:52:35;;;;;;;8.43;2.40;;;11.90;99.90;;;;;;5056995;28;20045;-70
2022/08/28 01:55:01;;;;;;;10.00;3.40;;;11.90;99.90;;;;;;5037827;28;20060;-70
2022/08/28 01:57:26;;;;;;;7.10;2.78;;;11.90;99.90;;;;;;5057296;28;20045;-70
2022/08/28 01:59:53;;;;;;;11.25;3.05;;;11.80;99.90;;;;;;5039917;28;20041;-70
2022/08/28 02:02:19;;;;;;;5.80;2.50;;;11.80;99.90;;;;;;5057283;28;20391;-70
2022/08/28 02:04:45;;;;;;;8.57;3.05;;;11.80;99.90;;;;;;5056859;28;20041;-70
2022/08/28 02:07:10;;;;;;;7.82;2.80;;;11.70;99.90;;;;;;5056947;28;20082;-70
2022/08/28 02:09:36;;;;;;;4.55;2.42;;;11.80;99.90;;;;;;5056438;28;20424;-71
2022/08/28 02:12:02;;;;;;;6.93;3.00;;;11.70;99.90;;;;;;5051092;28;20084;-70
2022/08/28 02:14:28;;;;;;;7.20;2.70;;;11.70;99.90;;;;;;5041280;28;20159;-70
2022/08/28 02:16:55;;;;;;;10.15;3.08;;;11.70;99.90;;;;;;5047821;28;20042;-70
2022/08/28 02:19:21;;;;;;;9.57;3.28;;;11.70;99.90;;;;;;5048392;28;20041;-70
2022/08/28 02:21:47;;;;;;;8.38;3.22;;;11.70;99.90;;;;;;5056275;28;20045;-71
2022/08/28 02:24:13;;;;;;;7.45;3.20;;;11.60;99.90;;;;;;5055701;28;20528;-70
2022/08/28 02:26:39;;;;;;;8.77;2.85;;;11.70;99.90;;;;;;5056310;28;20076;-71
2022/08/28 02:29:05;;;;;;;8.32;2.88;;;11.70;99.90;;;;;;5056490;28;20179;-70
2022/08/28 02:31:30;;;;;;;10.50;3.58;;;11.80;99.90;;;;;;5056088;28;20033;-71
2022/08/28 02:33:56;;;;;;;7.30;3.10;;;11.80;99.90;;;;;;5056567;28;20045;-71
2022/08/28 02:36:22;;;;;;;8.35;2.60;;;11.70;99.90;;;;;;5056320;28;20040;-70
2022/08/28 02:38:49;;;;;;;8.50;3.15;;;11.70;99.90;;;;;;5054116;28;20140;-70
2022/08/28 02:41:15;;;;;;;8.45;2.95;;;11.70;99.90;;;;;;5056041;28;20049;-71
2022/08/28 02:43:41;;;;;;;6.55;2.70;;;11.70;99.90;;;;;;5055391;28;20437;-70
2022/08/28 02:46:07;;;;;;;8.40;3.28;;;11.70;99.90;;;;;;5056058;28;20444;-71
2022/08/28 02:48:35;;;;;;;8.13;2.47;;;11.60;99.90;;;;;;5056063;28;20457;-70
2022/08/28 02:51:04;;;;;;;7.07;2.75;;;11.60;99.90;;;;;;5056434;28;20099;-71
2022/08/28 02:53:30;;;;;;;10.70;3.40;;;11.50;99.90;;;;;;5056165;28;20044;-70
2022/08/28 02:55:57;;;;;;;9.32;3.47;;;11.70;99.90;;;;;;5055778;28;20041;-70
2022/08/28 02:58:25;;;;;;;19.67;3.50;;;11.50;99.90;;;;;;5038659;28;20045;-70
2022/08/28 03:00:52;;;;;;;7.03;3.00;;;11.50;99.90;;;;;;5055942;28;20076;-70
2022/08/28 03:03:18;;;;;;;8.77;3.53;;;11.50;99.90;;;;;;5055928;28;20414;-70
2022/08/28 03:05:44;;;;;;;7.90;3.08;;;11.50;99.90;;;;;;5055989;28;20048;-70
2022/08/28 03:08:10;;;;;;;10.05;3.35;;;11.50;99.90;;;;;;5055245;28;20059;-71
2022/08/28 03:10:35;;;;;;;9.02;3.08;;;11.40;99.90;;;;;;5055532;28;20373;-70
2022/08/28 03:13:01;;;;;;;8.77;2.92;;;11.40;99.90;;;;;;5055178;28;20048;-70
2022/08/28 03:15:27;;;;;;;10.27;2.80;;;11.40;99.90;;;;;;5055377;28;20037;-70
2022/08/28 03:17:52;;;;;;;6.00;3.00;;;11.30;99.90;;;;;;5055634;28;20441;-70
2022/08/28 03:20:18;;;;;;;6.18;3.15;;;11.40;99.90;;;;;;5055479;28;20045;-70
2022/08/28 03:25:28;;;;;;;9.55;3.20;;;11.30;99.90;;;;;;5055452;28;20049;-70
2022/08/28 03:27:54;;;;;;;8.27;2.97;;;11.30;99.90;;;;;;5055336;28;20045;-70
2022/08/28 03:30:20;;;;;;;7.43;2.83;;;11.30;99.90;;;;;;5035468;28;20056;-70
2022/08/28 03:32:47;;;;;;;5.63;3.15;;;11.30;99.90;;;;;;5035456;28;20095;-70
2022/08/28 03:35:12;;;;;;;5.22;2.95;;;11.30;99.90;;;;;;5011612;28;20049;-70
2022/08/28 03:37:38;;;;;;;7.55;3.05;;;11.30;99.90;;;;;;5055073;28;20449;-70
2022/08/28 03:40:06;;;;;;;9.77;3.00;;;11.30;99.90;;;;;;5055438;28;20522;-70
2022/08/28 03:42:32;;;;;;;9.80;2.97;;;11.30;99.90;;;;;;5055060;28;20130;-70
2022/08/28 03:44:57;;;;;;;10.07;3.13;;;11.40;99.90;;;;;;5055133;28;20069;-70
2022/08/28 03:47:23;;;;;;;13.73;3.10;;;11.40;99.90;;;;;;5055043;28;20494;-70
2022/08/28 03:49:58;;;;;;;7.63;2.72;;;11.40;99.90;;;;;;5054827;28;20047;-70
2022/08/28 03:52:24;;;;;;;7.50;2.80;;;11.30;99.90;;;;;;5054976;28;20033;-71
2022/08/28 03:54:50;;;;;;;7.65;3.38;;;11.30;99.90;;;;;;5054662;28;20475;-70
2022/08/28 03:57:21;;;;;;;6.38;2.60;;;11.20;99.90;;;;;;5055054;28;20052;-70
2022/08/28 03:59:49;;;;;;;7.05;2.55;;;11.40;99.90;;;;;;5054934;28;20071;-70
2022/08/28 04:02:17;;;;;;;6.45;2.92;;;11.30;99.90;;;;;;5054985;28;20055;-70
2022/08/28 04:04:44;;;;;;;7.45;2.47;;;11.30;99.90;;;;;;5054568;28;20064;-70
2022/08/28 04:07:10;;;;;;;9.02;2.88;;;11.20;99.90;;;;;;5055134;28;20350;-70
2022/08/28 04:09:35;;;;;;;7.82;2.90;;;11.10;99.90;;;;;;5055145;28;20128;-70
2022/08/28 04:12:01;;;;;;;7.78;2.47;;;11.10;99.90;;;;;;5054390;28;20045;-70
2022/08/28 04:14:27;;;;;;;8.95;3.00;;;11.10;99.90;;;;;;5054855;28;20523;-70
2022/08/28 04:16:52;;;;;;;8.07;2.97;;;11.00;99.90;;;;;;5003245;28;20057;-71
2022/08/28 04:19:18;;;;;;;5.97;2.40;;;11.00;99.90;;;;;;5055883;28;20053;-70
2022/08/28 04:21:43;;;;;;;8.65;2.60;;;11.00;99.90;;;;;;5058403;28;20326;-70
2022/08/28 04:24:12;;;;;;;5.13;2.25;;;11.00;99.90;;;;;;5058766;28;20037;-70
2022/08/28 04:26:38;;;;;;;10.25;2.60;;;11.00;99.90;;;;;;5058854;28;20045;-70
2022/08/28 04:29:04;;;;;;;7.78;2.90;;;11.00;99.90;;;;;;5058760;28;20052;-70
2022/08/28 04:31:30;;;;;;;6.90;2.35;;;11.00;99.90;;;;;;5058473;28;20055;-70
2022/08/28 04:33:58;;;;;;;6.13;2.42;;;11.00;99.90;;;;;;5057655;28;20048;-70
2022/08/28 04:36:23;;;;;;;8.70;2.72;;;11.00;99.90;;;;;;5058518;28;20037;-70
2022/08/28 04:38:49;;;;;;;8.43;2.88;;;10.90;99.90;;;;;;5058579;28;20168;-70
2022/08/28 04:41:16;;;;;;;6.82;3.40;;;10.90;99.90;;;;;;5007138;28;20154;-70
2022/08/28 04:43:43;;;;;;;8.10;2.90;;;10.90;99.90;;;;;;5058451;28;20040;-70
2022/08/28 04:46:13;;;;;;;9.38;3.03;;;11.00;99.90;;;;;;5058151;28;20045;-70
2022/08/28 04:48:40;;;;;;;5.30;2.75;;;11.10;99.90;;;;;;5057807;28;20095;-70
2022/08/28 04:51:08;;;;;;;7.28;2.50;;;11.10;99.90;;;;;;5058298;28;20072;-70
2022/08/28 04:53:35;;;;;;;6.57;3.15;;;11.20;99.90;;;;;;5058228;28;20059;-70
2022/08/28 04:56:03;;;;;;;9.88;3.20;;;11.20;99.90;;;;;;5058210;28;20045;-71
2022/08/28 04:58:29;;;;;;;9.48;2.90;;;11.20;99.90;;;;;;5040640;28;20099;-70
2022/08/28 05:00:55;;;;;;;7.65;2.55;;;11.40;99.90;;;;;;5057723;28;20080;-70
2022/08/28 05:03:21;;;;;;;7.03;2.58;;;11.30;99.90;;;;;;5040466;28;20056;-70
2022/08/28 05:05:49;;;;;;;7.70;2.58;;;11.30;99.90;;;;;;5058041;28;20045;-70
2022/08/28 05:08:17;;;;;;;5.72;2.42;;;11.30;99.90;;;;;;5057871;28;20148;-70
2022/08/28 05:10:43;;;;;;;8.55;2.53;;;11.40;99.90;;;;;;5057742;28;20057;-70
2022/08/28 05:13:10;;;;;;;6.78;2.75;;;11.60;99.90;;;;;;5057789;28;20460;-70
2022/08/28 05:15:40;;;;;;;4.85;2.33;;;11.50;99.90;;;;;;5057801;28;20041;-70
2022/08/28 05:18:06;;;;;;;6.72;2.72;;;11.50;99.90;;;;;;5057737;28;20092;-70
2022/08/28 05:20:36;;;;;;;8.02;2.88;;;11.50;99.90;;;;;;5061634;28;20036;-70
2022/08/28 05:23:04;;;;;;;5.68;2.70;;;11.50;99.90;;;;;;5039573;28;20037;-71
2022/08/28 05:25:31;;;;;;;18.00;3.00;;;11.50;99.90;;;;;;5057412;28;20354;-70
2022/08/28 05:27:57;;;;;;;7.05;2.53;;;11.60;99.90;;;;;;5057668;28;20053;-70
2022/08/28 05:30:22;;;;;;;6.88;2.33;;;11.60;99.90;;;;;;5057189;28;20330;-70
2022/08/28 05:32:48;;;;;;;7.32;2.50;;;11.60;99.90;;;;;;5059052;28;20066;-70
2022/08/28 05:35:14;;;;;;;6.47;2.58;;;11.70;99.90;;;;;;5057441;28;20041;-70
2022/08/28 05:37:40;;;;;;;11.77;2.40;;;11.70;99.90;;;;;;5055011;28;20507;-70
2022/08/28 05:40:06;;;;;;;4.45;2.53;;;11.70;99.90;;;;;;5057196;28;20041;-70
2022/08/28 05:42:31;;;;;;;4.90;2.38;;;11.70;99.90;;;;;;5056686;28;20048;-70
2022/08/28 05:44:58;;;;;;;7.03;2.70;;;11.80;99.90;;;;;;5057270;28;20053;-70
2022/08/28 05:47:23;;;;;;;9.25;2.58;;;11.80;99.90;;;;;;5057156;28;20075;-71
2022/08/28 05:49:49;;;;;;;7.18;2.60;;;11.80;99.90;;;;;;5056792;28;20049;-71
2022/08/28 05:52:15;;;;;;;5.93;2.30;;;11.90;99.90;;;;;;5058592;28;20051;-70
2022/08/28 05:54:41;;;;;;;8.25;2.65;;;12.00;99.90;;;;;;5057081;28;20373;-70
2022/08/28 05:57:07;;;;;;;7.25;2.75;;;12.00;99.90;;;;;;5056898;28;20412;-70
2022/08/28 05:59:32;;;;;;;9.95;2.70;;;12.20;99.90;;;;;;5057138;28;20057;-71
2022/08/28 06:01:58;;;;;;;4.75;2.00;;;13.20;99.90;;;;;;5057395;28;20088;-69
2022/08/28 06:04:26;;;;;;;5.85;2.15;;;14.70;99.90;;;;;;5056727;28;20044;-70
2022/08/28 06:06:52;;;;;;;4.57;1.95;;;16.00;99.90;;;;;;5056432;28;20033;-71
2022/08/28 06:09:23;;;;;;;6.85;2.08;;;17.40;99.90;;;;;;5056943;28;20048;-71
2022/08/28 06:11:51;;;;;;;7.53;2.20;;;18.50;99.90;;;;;;5056989;28;20049;-69
2022/08/28 06:14:19;;;;;;;8.65;2.47;;;19.50;99.90;;;;;;5056604;28;20355;-69
2022/08/28 06:16:48;;;;;;;5.90;2.08;;;20.30;99.90;;;;;;5056708;28;20103;-69
2022/08/28 06:19:15;;;;;;;6.15;1.60;;;21.10;99.90;;;;;;5038888;28;20128;-70
2022/08/28 06:21:42;;;;;;;4.82;1.80;;;21.70;99.90;;;;;;5056400;28;20068;-70
2022/08/28 06:24:09;;;;;;;14.23;1.92;;;22.30;99.90;;;;;;5056522;28;20041;-69
2022/08/28 06:26:35;;;;;;;7.75;1.88;;;22.80;99.90;;;;;;5056285;28;20136;-70
2022/08/28 06:29:06;;;;;;;6.85;2.17;;;23.30;99.90;;;;;;5056454;28;20128;-71
2022/08/28 06:31:32;;;;;;;7.32;2.22;;;23.70;99.50;;;;;;5056316;28;20064;-72
2022/08/28 06:33:58;;;;;;;12.05;1.85;;;24.10;99.40;;;;;;5038804;28;20056;-73
2022/08/28 06:36:28;;;;;;;3.90;1.60;;;24.40;98.70;;;;;;5056476;28;20397;-70
2022/08/28 06:39:00;;;;;;;7.05;1.92;;;24.80;97.90;;;;;;5056390;28;20361;-72
2022/08/28 06:41:26;;;;;;;6.50;2.08;;;25.10;97.30;;;;;;5055477;28;20033;-72
2022/08/28 06:43:52;;;;;;;5.57;1.65;;;25.40;96.90;;;;;;5055892;28;20453;-72
2022/08/28 06:46:17;;;;;;;4.90;1.52;;;25.70;97.10;;;;;;5055951;28;20048;-72
2022/08/28 06:48:43;;;;;;;5.32;1.80;;;25.70;96.10;;;;;;5055974;28;20121;-72
2022/08/28 06:51:11;;;;;;;5.53;1.88;;;25.10;96.10;;;;;;5055692;28;20081;-72
2022/08/28 06:53:38;;;;;;;6.18;1.58;;;24.30;96.10;;;;;;5055906;28;20041;-71
2022/08/28 06:56:10;;;;;;;5.53;1.30;;;23.20;96.50;;;;;;5055724;28;20049;-72
2022/08/28 06:58:39;;;;;;;21.98;2.03;;;22.50;97.20;;;;;;5056213;28;20087;-71
2022/08/28 07:01:15;;;;;;;9.32;2.08;;;21.60;96.20;;;;;;5056078;28;20080;-72
2022/08/28 07:03:41;;;;;;;5.85;1.35;;;20.90;97.80;;;;;;5055082;28;20110;-71
2022/08/28 07:06:09;;;;;;;4.22;1.30;;;20.40;98.60;;;;;;5055055;28;20460;-71
2022/08/28 07:08:36;;;;;;;7.35;1.75;;;20.10;99.10;;;;;;5055612;28;20048;-71
2022/08/28 07:11:08;;;;;;;5.40;1.48;;;19.80;99.20;;;;;;5055584;28;20092;-71
2022/08/28 07:13:35;;;;;;;4.45;1.48;;;19.50;98.70;;;;;;5056010;28;20049;-71
2022/08/28 07:16:01;;;;;;;3.58;1.55;;;19.20;99.50;;;;;;5055648;28;20049;-71
2022/08/28 07:18:26;;;;;;;5.95;1.45;;;19.30;99.70;;;;;;5055007;28;20040;-71
2022/08/28 07:20:57;;;;;;;8.98;1.55;;;19.10;99.80;;;;;;5054577;28;20120;-71
2022/08/28 07:23:23;;;;;;;7.57;1.50;;;19.00;99.90;;;;;;5055910;28;20041;-71
2022/08/28 07:25:49;;;;;;;5.25;1.45;;;19.10;99.90;;;;;;5055384;28;20040;-71
2022/08/28 07:28:15;;;;;;;10.10;1.85;;;19.10;99.90;;;;;;5055359;28;20472;-71
2022/08/28 07:30:41;;;;;;;4.90;1.40;;;19.20;99.90;;;;;;5055277;28;20071;-71
2022/08/28 07:33:07;;;;;;;5.95;1.38;;;19.30;99.90;;;;;;5055000;28;20117;-72
2022/08/28 07:35:32;;;;;;;4.00;1.33;;;19.30;99.90;;;;;;5054098;28;20401;-71
2022/08/28 07:37:58;;;;;;;9.90;1.73;;;19.40;99.90;;;;;;5055170;28;20045;-71
2022/08/28 07:40:23;;;;;;;6.85;1.75;;;19.40;99.90;;;;;;5055393;28;20080;-72
2022/08/28 07:45:34;;;;;;;4.82;1.60;;;19.80;99.80;;;;;;5055197;28;20133;-71
2022/08/28 07:48:03;;;;;;;5.50;1.50;;;19.70;98.80;;;;;;5054903;28;20111;-71
2022/08/28 07:50:28;;;;;;;8.30;1.73;;;19.70;99.00;;;;;;5054801;28;20140;-72
2022/08/28 07:52:54;;;;;;;4.65;1.50;;;19.50;99.40;;;;;;5054543;28;20179;-71
2022/08/28 07:55:19;;;;;;;7.00;1.35;;;19.40;99.80;;;;;;5054809;28;20041;-71
2022/08/28 07:57:47;;;;;;;9.23;1.70;;;19.20;99.20;;;;;;5055335;28;20043;-71
2022/08/28 08:00:13;;;;;;;4.75;1.40;;;19.10;98.50;;;;;;5037987;28;20445;-71
2022/08/28 08:02:39;;;;;;;6.35;1.30;;;19.00;98.20;;;;;;5054821;28;20045;-71
2022/08/28 08:05:05;;;;;;;4.72;1.52;;;19.00;98.00;;;;;;5054526;28;20040;-71
2022/08/28 08:07:31;;;;;;;2.97;1.35;;;19.00;98.70;;;;;;5055100;28;20377;-70
2022/08/28 08:09:57;;;;;;;4.72;1.92;;;19.00;97.80;;;;;;5054679;28;20114;-71
2022/08/28 08:12:22;;;;;;;4.82;1.45;;;19.00;97.70;;;;;;5054775;28;20057;-71
2022/08/28 08:14:48;;;;;;;4.75;1.20;;;19.10;98.20;;;;;;5054783;28;20049;-71
2022/08/28 08:17:14;;;;;;;4.13;1.50;;;19.20;97.90;;;;;;5055024;28;20457;-71
2022/08/28 08:19:39;;;;;;;6.57;1.60;;;19.30;97.70;;;;;;5054526;28;20124;-72
2022/08/28 08:22:05;;;;;;;4.78;1.40;;;19.90;98.20;;;;;;5037329;28;20048;-72
2022/08/28 08:24:31;;;;;;;5.05;1.58;;;20.10;97.00;;;;;;5055028;28;20354;-71
2022/08/28 08:26:59;;;;;;;5.47;1.67;;;20.00;97.10;;;;;;5054668;28;20048;-71
2022/08/28 08:29:26;;;;;;;6.25;1.60;;;19.70;97.30;;;;;;5054615;28;20120;-71
2022/08/28 08:32:03;;;;;;;4.18;1.50;;;19.60;97.80;;;;;;5054379;28;20191;-71
2022/08/28 08:34:30;;;;;;;6.03;1.63;;;19.80;97.60;;;;;;5054171;28;20053;-71
2022/08/28 08:36:56;;;;;;;3.30;1.42;;;19.70;97.70;;;;;;5054840;28;20045;-71
2022/08/28 08:39:21;;;;;;;5.65;1.85;;;20.10;97.80;;;;;;5054735;28;20048;-72
2022/08/28 08:41:50;;;;;;;6.32;1.63;;;21.00;97.20;;;;;;5054521;28;20411;-71
2022/08/28 08:44:25;;;;;;;4.75;1.60;;;21.80;96.10;;;;;;5054304;28;20037;-71
2022/08/28 08:47:05;;;;;;;5.47;1.50;;;22.60;94.70;;;;;;5054468;28;20135;-71
2022/08/28 08:49:40;;;;;;;5.70;1.40;;;22.80;94.30;;;;;;5054176;28;20037;-71
2022/08/28 08:52:23;;;;;;;3.25;1.20;;;23.10;94.00;;;;;;5036777;28;20056;-72
2022/08/28 08:55:06;;;;;;;8.07;1.70;;;22.70;93.70;;;;;;5054397;28;20144;-71
2022/08/28 08:57:34;;;;;;;;;;;22.10;94.50;;;;;;5055058;28;20123;-71
2022/08/28 09:00:02;;;;;;;4.90;1.50;;;22.00;94.60;;;;;;5054453;28;20021;-71
2022/08/28 09:02:35;;;;;;;6.93;1.73;;;21.80;94.00;;;;;;5054250;28;20040;-71
2022/08/28 09:05:05;;;;;;;5.10;1.60;;;21.10;94.90;;;;;;5055250;28;20050;-71
2022/08/28 09:07:41;;;;;;;6.18;1.85;;;20.40;95.80;;;;;;5058428;28;20353;-71
2022/08/28 09:10:14;;;;;;;5.43;1.73;;;20.00;96.60;;;;;;5057821;28;20048;-71
2022/08/28 09:12:56;;;;;;;7.97;1.67;;;20.00;97.10;;;;;;5058041;28;20037;-71
2022/08/28 09:15:34;;;;;;;6.00;1.65;;;20.10;97.80;;;;;;5057964;28;20041;-72
2022/08/28 09:18:03;;;;;;;9.40;1.58;;;20.30;97.40;;;;;;5058053;28;20056;-71
2022/08/28 09:20:28;;;;;;;6.75;1.90;;;20.70;96.80;;;;;;5057681;28;20110;-71
2022/08/28 09:22:54;;;;;;;3.83;1.60;;;20.80;96.20;;;;;;5058053;28;20428;-72
2022/08/28 09:26:00;;;;;;;3.75;1.50;;;20.90;95.50;;;;;;5058153;28;20055;-71
2022/08/28 09:28:29;;;;;;;6.20;1.92;;;21.30;95.30;;;;;;4962039;29;20070;-72
2022/08/28 09:30:57;;;;;;;4.60;1.60;;;21.60;95.20;;;;;;4957443;29;20106;-71
2022/08/28 09:33:36;;;;;;;9.45;1.98;;;21.80;94.80;;;;;;5005051;28;20041;-71
2022/08/28 09:36:30;;;;;;;4.03;1.40;;;22.00;94.70;;;;;;5031022;28;20052;-68
2022/08/28 09:39:23;;;;;;;3.83;1.40;;;21.60;93.70;;;;;;5059983;28;20048;-72
2022/08/28 09:44:58;;;;;;;5.90;1.63;;;21.30;94.20;;;;;;5050067;28;20049;-69
2022/08/28 09:47:37;;;;;;;5.63;2.10;;;21.30;94.50;;;;;;5040417;28;20051;-70
2022/08/28 09:50:20;;;;;;;5.38;1.63;;;21.20;93.50;;;;;;5057170;28;20049;-70
2022/08/28 09:52:46;;;;;;;4.45;1.40;;;21.20;93.40;;;;;;5057213;28;20045;-69
2022/08/28 09:55:18;;;;;;;6.80;1.63;;;21.20;94.10;;;;;;5056923;28;20124;-70
2022/08/28 09:57:46;;;;;;;3.75;1.40;;;21.30;93.80;;;;;;5056831;28;20123;-70
2022/08/28 10:00:12;;;;;;;3.75;1.30;;;21.20;94.20;;;;;;5057026;28;20127;-70
2022/08/28 10:02:52;;;;;;;4.45;1.50;;;21.00;93.90;;;;;;5057446;28;20134;-69
2022/08/28 10:05:34;;;;;;;4.03;1.20;;;20.60;94.20;;;;;;5057045;28;20129;-70
2022/08/28 10:08:24;;;;;;;5.32;1.35;;;20.50;94.50;;;;;;5056629;28;20120;-70
2022/08/28 10:10:56;;;;;;;6.25;1.60;;;20.40;94.20;;;;;;5042380;28;20045;-68
2022/08/28 10:13:38;;;;;;;5.50;1.48;;;20.60;94.50;;;;;;5036239;28;20053;-69
2022/08/28 10:16:29;;;;;;;5.90;1.60;;;20.80;94.30;;;;;;5036637;28;20117;-69
2022/08/28 10:19:28;;;;;;;4.35;1.92;;;20.90;94.70;;;;;;5036896;28;20037;-68
2022/08/28 10:22:15;;;;;;;3.67;1.77;;;20.70;94.10;;;;;;5036780;28;20054;-69
2022/08/28 10:25:14;;;;;;;5.63;1.40;;;20.70;94.50;;;;;;5036682;28;20085;-69
2022/08/28 10:28:00;;;;;;;3.88;1.58;;;20.90;94.70;;;;;;5032577;28;20061;-70
2022/08/28 10:30:29;;;;;;;4.43;1.60;;;21.20;94.20;;;;;;5036062;28;20551;-70
2022/08/28 10:33:05;;;;;;;8.38;1.88;;;21.40;94.30;;;;;;5036448;28;20046;-69
2022/08/28 10:35:50;;;;;;;12.63;2.30;;;21.40;94.40;;;;;;5036706;28;20041;-70
2022/08/28 10:38:27;;;;;;;6.22;1.70;;;21.20;94.40;;;;;;5036292;28;20046;-69
2022/08/28 10:41:07;;;;;;;4.43;1.45;;;21.20;94.30;;;;;;5036370;28;20061;-70
2022/08/28 10:43:52;;;;;;;6.40;1.70;;;21.30;94.50;;;;;;5035847;28;20068;-70
2022/08/28 10:46:25;;;;;;;5.80;1.88;;;21.30;94.40;;;;;;5036096;28;20196;-71
2022/08/28 10:49:00;;;;;;;4.65;1.58;;;21.40;94.30;;;;;;5036417;28;20128;-70
2022/08/28 10:51:45;;;;;;;5.38;1.30;;;21.40;94.20;;;;;;5035826;28;20446;-72
2022/08/28 10:54:36;;;;;;;6.13;1.73;;;21.10;94.00;;;;;;5035992;28;20126;-72
2022/08/28 10:57:30;;;;;;;9.43;1.50;;;21.20;93.10;;;;;;5035733;28;20465;-72
2022/08/28 10:59:59;;;;;;;4.03;1.42;;;21.40;92.70;;;;;;5035983;28;20045;-72
2022/08/28 11:02:26;;;;;;;5.22;1.30;;;21.20;92.80;;;;;;5035384;28;20476;-72
2022/08/28 11:04:54;;;;;;;8.50;1.90;;;20.80;93.00;;;;;;5036028;28;20088;-71
2022/08/28 11:07:33;;;;;;;4.45;1.30;;;20.70;93.20;;;;;;5035856;28;20037;-70
2022/08/28 11:10:22;;;;;;;7.38;1.85;;;20.90;94.00;;;;;;5036181;28;20134;-71
2022/08/28 11:12:50;;;;;;;5.63;1.88;;;21.20;94.00;;;;;;5055143;28;20126;-70
2022/08/28 11:15:31;;;;;;;8.38;1.42;;;21.10;93.20;;;;;;5055453;28;20092;-70
2022/08/28 11:18:12;;;;;;;6.43;1.70;;;21.00;93.50;;;;;;5055285;28;20045;-71
2022/08/28 11:20:42;;;;;;;5.15;1.48;;;21.10;94.00;;;;;;5055366;28;20491;-71
2022/08/28 11:23:21;;;;;;;5.68;1.58;;;21.20;93.40;;;;;;5055339;28;20053;-70
2022/08/28 11:26:05;;;;;;;4.95;1.65;;;21.10;93.70;;;;;;5055595;28;20123;-70
2022/08/28 11:28:34;;;;;;;4.75;1.40;;;20.90;93.60;;;;;;5035873;28;20188;-70
2022/08/28 11:30:59;;;;;;;3.50;1.48;;;21.00;93.80;;;;;;5035714;28;20056;-69
2022/08/28 11:33:40;;;;;;;6.47;1.60;;;21.10;93.70;;;;;;5030157;28;20038;-70
2022/08/28 11:36:31;;;;;;;5.32;1.42;;;21.20;93.40;;;;;;5046096;28;20461;-70
2022/08/28 11:39:17;;;;;;;4.95;1.55;;;21.20;93.60;;;;;;5053427;28;20048;-69
2022/08/28 11:42:10;;;;;;;6.35;1.23;;;21.50;93.70;;;;;;5048436;28;20049;-69
2022/08/28 11:44:44;;;;;;;6.18;1.80;;;21.70;93.90;;;;;;5035169;28;20049;-69
2022/08/28 11:47:42;;;;;;;4.97;1.48;;;21.90;92.80;;;;;;5034660;28;20045;-69
2022/08/28 11:50:24;;;;;;;6.38;1.90;;;21.90;92.50;;;;;;5034913;28;20515;-68
2022/08/28 11:53:21;;;;;;;3.83;1.58;;;21.80;92.80;;;;;;5046397;28;20088;-68
2022/08/28 11:55:55;;;;;;;4.95;1.70;;;21.70;93.10;;;;;;5054777;28;20377;-68
2022/08/28 11:58:46;;;;;;;13.70;1.52;;;21.50;92.20;;;;;;5050567;28;20042;-70
2022/08/28 12:01:13;;;;;;;5.85;1.77;;;21.20;92.00;;;;;;5062840;28;20058;-70
2022/08/28 12:03:43;;;;;;;5.03;1.63;;;21.30;91.60;;;;;;5074742;28;20063;-71
2022/08/28 12:06:10;;;;;;;4.07;1.40;;;21.40;92.20;;;;;;5075235;28;20357;-70
2022/08/28 12:08:49;;;;;;;7.03;1.75;;;21.40;91.40;;;;;;5054301;28;20449;-70
2022/08/28 12:11:40;;;;;;;11.05;1.83;;;21.50;91.60;;;;;;5034770;28;20366;-70
2022/08/28 12:14:25;;;;;;;5.53;2.03;;;21.50;92.50;;;;;;5034801;28;20065;-71
2022/08/28 12:17:03;;;;;;;5.75;1.23;;;21.40;92.30;;;;;;5034724;28;20107;-71
2022/08/28 12:20:00;;;;;;;9.55;1.70;;;21.20;92.30;;;;;;5034808;28;20060;-72
2022/08/28 12:22:49;;;;;;;8.63;1.85;;;21.30;93.00;;;;;;5046963;28;20045;-70
2022/08/28 12:25:36;;;;;;;8.20;1.58;;;21.50;91.80;;;;;;5051976;28;20044;-68
2022/08/28 12:28:22;;;;;;;6.47;1.73;;;21.40;91.70;;;;;;5044096;28;20037;-69
2022/08/28 12:31:09;;;;;;;5.28;1.75;;;21.50;92.50;;;;;;5044664;28;20485;-69
2022/08/28 12:33:54;;;;;;;4.90;1.83;;;21.50;92.20;;;;;;5050966;28;20045;-68
2022/08/28 12:36:25;;;;;;;3.40;1.52;;;21.30;92.40;;;;;;5054409;28;20037;-69
2022/08/28 12:38:52;;;;;;;4.72;1.63;;;21.10;92.80;;;;;;5054100;28;20040;-70
2022/08/28 12:41:19;;;;;;;7.60;1.92;;;21.00;92.90;;;;;;5057576;28;20122;-70
2022/08/28 12:43:48;;;;;;;4.13;1.55;;;20.80;93.00;;;;;;5058861;28;20045;-68
2022/08/28 12:46:19;;;;;;;4.60;1.67;;;20.70;93.40;;;;;;5058610;28;20045;-69
2022/08/28 12:48:52;;;;;;;8.02;1.83;;;20.70;93.10;;;;;;5053692;28;20045;-68
2022/08/28 12:51:23;;;;;;;5.88;1.73;;;20.80;93.40;;;;;;5046425;28;20129;-68
2022/08/28 12:53:52;;;;;;;5.13;1.50;;;21.10;93.00;;;;;;5047069;28;20457;-68
2022/08/28 12:56:21;;;;;;;4.30;1.58;;;21.30;93.00;;;;;;5052175;28;20068;-68
2022/08/28 12:58:47;;;;;;;4.63;1.55;;;21.50;93.20;;;;;;5055933;28;20465;-69
2022/08/28 13:01:20;;;;;;;7.90;1.85;;;21.80;93.10;;;;;;5058311;28;20096;-69
2022/08/28 13:03:47;;;;;;;;;;;21.80;92.50;;;;;;5058611;28;20047;-69
2022/08/28 13:06:20;;;;;;;6.95;1.90;;;21.60;92.40;;;;;;5057893;28;20345;-69
2022/08/28 13:08:47;;;;;;;;;;;21.50;92.60;;;;;;5057991;28;20063;-70
2022/08/28 13:11:18;;;;;;;5.53;1.20;;;21.30;92.90;;;;;;5054403;28;19928;-69